sensor_id;sensor_type;location;lat;lon;timestamp;P1;durP1;ratioP1;P2;durP2;ratioP2
3613;SDS011;1821;50.936;6.854;2023-07-09T00:00:34;8.68;;;5.68;;
3613;SDS011;1821;50.936;6.854;2023-07-09T00:01:17;9.98;;;6.03;;
3613;SDS011;1821;50.936;6.854;2023-07-09T00:02:00;9.20;;;6.10;;
3613;SDS011;1821;50.936;6.854;2023-07-09T00:02:42;8.27;;;5.78;;
3613;SDS011;1821;50.936;6.854;2023-07-09T00:03:25;9.45;;;5.60;;
3613;SDS011;1821;50.936;6.854;2023-07-09T00:04:08;9.18;;;6.70;;
3613;SDS011;1821;50.936;6.854;2023-07-09T00:04:51;12.25;;;6.88;;
3613;SDS011;1821;50.936;6.854;2023-07-09T00:05:33;12.20;;;6.30;;
3613;SDS011;1821;50.936;6.854;2023-07-09T00:06:16;7.75;;;5.82;;
3613;SDS011;1821;50.936;6.854;2023-07-09T00:07:02;9.45;;;6.13;;
3613;SDS011;1821;50.936;6.854;2023-07-09T00:07:46;10.15;;;6.35;;
3613;SDS011;1821;50.936;6.854;2023-07-09T00:08:29;8.63;;;6.07;;
3613;SDS011;1821;50.936;6.854;2023-07-09T00:09:16;9.68;;;5.50;;
3613;SDS011;1821;50.936;6.854;2023-07-09T00:09:59;11.18;;;6.15;;
3613;SDS011;1821;50.936;6.854;2023-07-09T00:10:42;9.07;;;5.85;;
3613;SDS011;1821;50.936;6.854;2023-07-09T00:11:24;10.88;;;6.30;;
3613;SDS011;1821;50.936;6.854;2023-07-09T00:12:09;8.30;;;6.00;;
3613;SDS011;1821;50.936;6.854;2023-07-09T00:12:53;12.90;;;6.10;;
3613;SDS011;1821;50.936;6.854;2023-07-09T00:13:35;12.43;;;6.60;;
3613;SDS011;1821;50.936;6.854;2023-07-09T00:14:20;8.30;;;6.40;;
3613;SDS011;1821;50.936;6.854;2023-07-09T00:15:02;10.38;;;6.65;;
3613;SDS011;1821;50.936;6.854;2023-07-09T00:15:45;11.02;;;6.30;;
3613;SDS011;1821;50.936;6.854;2023-07-09T00:16:28;13.05;;;6.65;;
3613;SDS011;1821;50.936;6.854;2023-07-09T00:17:11;11.00;;;6.10;;
3613;SDS011;1821;50.936;6.854;2023-07-09T00:17:54;7.60;;;5.80;;
3613;SDS011;1821;50.936;6.854;2023-07-09T00:18:36;7.97;;;5.97;;
3613;SDS011;1821;50.936;6.854;2023-07-09T00:19:20;9.25;;;6.03;;
3613;SDS011;1821;50.936;6.854;2023-07-09T00:20:11;12.25;;;5.95;;
3613;SDS011;1821;50.936;6.854;2023-07-09T00:20:54;8.15;;;5.45;;
3613;SDS011;1821;50.936;6.854;2023-07-09T00:21:37;8.23;;;5.53;;
3613;SDS011;1821;50.936;6.854;2023-07-09T00:22:19;7.50;;;5.80;;
3613;SDS011;1821;50.936;6.854;2023-07-09T00:23:02;10.38;;;5.80;;
3613;SDS011;1821;50.936;6.854;2023-07-09T00:23:46;9.73;;;5.90;;
3613;SDS011;1821;50.936;6.854;2023-07-09T00:24:31;8.10;;;5.80;;
3613;SDS011;1821;50.936;6.854;2023-07-09T00:25:13;8.38;;;5.60;;
3613;SDS011;1821;50.936;6.854;2023-07-09T00:25:58;6.80;;;5.30;;
3613;SDS011;1821;50.936;6.854;2023-07-09T00:26:41;7.22;;;5.70;;
3613;SDS011;1821;50.936;6.854;2023-07-09T00:27:25;8.88;;;5.78;;
3613;SDS011;1821;50.936;6.854;2023-07-09T00:28:11;12.38;;;5.45;;
3613;SDS011;1821;50.936;6.854;2023-07-09T00:28:54;11.57;;;6.32;;
3613;SDS011;1821;50.936;6.854;2023-07-09T00:29:36;9.30;;;5.90;;
3613;SDS011;1821;50.936;6.854;2023-07-09T00:30:19;8.55;;;6.10;;
3613;SDS011;1821;50.936;6.854;2023-07-09T00:31:05;7.80;;;5.40;;
3613;SDS011;1821;50.936;6.854;2023-07-09T00:31:47;7.95;;;5.72;;
3613;SDS011;1821;50.936;6.854;2023-07-09T00:32:30;9.67;;;6.30;;
3613;SDS011;1821;50.936;6.854;2023-07-09T00:33:13;7.55;;;5.65;;
3613;SDS011;1821;50.936;6.854;2023-07-09T00:33:55;7.07;;;5.65;;
3613;SDS011;1821;50.936;6.854;2023-07-09T00:34:42;8.35;;;6.10;;
3613;SDS011;1821;50.936;6.854;2023-07-09T00:35:29;7.78;;;5.43;;
3613;SDS011;1821;50.936;6.854;2023-07-09T00:36:16;10.18;;;5.47;;
3613;SDS011;1821;50.936;6.854;2023-07-09T00:36:58;8.50;;;5.22;;
3613;SDS011;1821;50.936;6.854;2023-07-09T00:37:43;8.10;;;5.78;;
3613;SDS011;1821;50.936;6.854;2023-07-09T00:38:26;7.95;;;6.00;;
3613;SDS011;1821;50.936;6.854;2023-07-09T00:39:18;6.35;;;5.22;;
3613;SDS011;1821;50.936;6.854;2023-07-09T00:40:00;10.02;;;5.90;;
3613;SDS011;1821;50.936;6.854;2023-07-09T00:40:45;9.55;;;5.88;;
3613;SDS011;1821;50.936;6.854;2023-07-09T00:41:28;9.43;;;5.90;;
3613;SDS011;1821;50.936;6.854;2023-07-09T00:42:12;8.40;;;6.03;;
3613;SDS011;1821;50.936;6.854;2023-07-09T00:42:59;8.75;;;5.47;;
3613;SDS011;1821;50.936;6.854;2023-07-09T00:43:42;7.95;;;5.18;;
3613;SDS011;1821;50.936;6.854;2023-07-09T00:44:29;8.70;;;5.90;;
3613;SDS011;1821;50.936;6.854;2023-07-09T00:45:30;7.05;;;5.65;;
3613;SDS011;1821;50.936;6.854;2023-07-09T00:48:32;8.77;;;5.28;;
3613;SDS011;1821;50.936;6.854;2023-07-09T00:49:16;10.18;;;5.72;;
3613;SDS011;1821;50.936;6.854;2023-07-09T00:50:04;9.93;;;6.07;;
3613;SDS011;1821;50.936;6.854;2023-07-09T00:50:50;8.00;;;5.63;;
3613;SDS011;1821;50.936;6.854;2023-07-09T00:51:36;7.95;;;6.18;;
3613;SDS011;1821;50.936;6.854;2023-07-09T00:52:27;9.00;;;6.47;;
3613;SDS011;1821;50.936;6.854;2023-07-09T00:53:25;9.20;;;6.53;;
3613;SDS011;1821;50.936;6.854;2023-07-09T00:54:18;9.63;;;6.20;;
3613;SDS011;1821;50.936;6.854;2023-07-09T00:55:03;8.25;;;5.78;;
3613;SDS011;1821;50.936;6.854;2023-07-09T00:55:51;9.70;;;6.20;;
3613;SDS011;1821;50.936;6.854;2023-07-09T00:56:36;9.93;;;6.07;;
3613;SDS011;1821;50.936;6.854;2023-07-09T00:57:21;9.35;;;6.32;;
3613;SDS011;1821;50.936;6.854;2023-07-09T00:58:05;7.00;;;5.85;;
3613;SDS011;1821;50.936;6.854;2023-07-09T00:58:48;9.75;;;6.35;;
3613;SDS011;1821;50.936;6.854;2023-07-09T00:59:30;8.38;;;6.50;;
3613;SDS011;1821;50.936;6.854;2023-07-09T01:00:13;10.77;;;7.00;;
3613;SDS011;1821;50.936;6.854;2023-07-09T01:01:02;9.23;;;5.73;;
3613;SDS011;1821;50.936;6.854;2023-07-09T01:01:47;9.32;;;5.95;;
3613;SDS011;1821;50.936;6.854;2023-07-09T01:02:31;8.85;;;5.75;;
3613;SDS011;1821;50.936;6.854;2023-07-09T01:03:25;9.93;;;6.22;;
3613;SDS011;1821;50.936;6.854;2023-07-09T01:04:10;11.45;;;6.38;;
3613;SDS011;1821;50.936;6.854;2023-07-09T01:04:54;11.75;;;6.57;;
3613;SDS011;1821;50.936;6.854;2023-07-09T01:05:37;9.98;;;6.30;;
3613;SDS011;1821;50.936;6.854;2023-07-09T01:06:23;11.20;;;5.70;;
3613;SDS011;1821;50.936;6.854;2023-07-09T01:07:11;11.43;;;6.53;;
3613;SDS011;1821;50.936;6.854;2023-07-09T01:07:54;10.25;;;6.82;;
3613;SDS011;1821;50.936;6.854;2023-07-09T01:08:41;9.13;;;6.70;;
3613;SDS011;1821;50.936;6.854;2023-07-09T01:09:24;8.52;;;5.75;;
3613;SDS011;1821;50.936;6.854;2023-07-09T01:10:07;8.27;;;5.85;;
3613;SDS011;1821;50.936;6.854;2023-07-09T01:10:51;6.70;;;5.80;;
3613;SDS011;1821;50.936;6.854;2023-07-09T01:11:34;9.40;;;6.28;;
3613;SDS011;1821;50.936;6.854;2023-07-09T01:12:19;9.07;;;5.90;;
3613;SDS011;1821;50.936;6.854;2023-07-09T01:13:02;7.40;;;5.80;;
3613;SDS011;1821;50.936;6.854;2023-07-09T01:13:44;8.68;;;5.72;;
3613;SDS011;1821;50.936;6.854;2023-07-09T01:14:27;8.43;;;5.88;;
3613;SDS011;1821;50.936;6.854;2023-07-09T01:15:09;9.90;;;6.20;;
3613;SDS011;1821;50.936;6.854;2023-07-09T01:15:52;10.07;;;6.13;;
3613;SDS011;1821;50.936;6.854;2023-07-09T01:16:38;9.50;;;6.38;;
3613;SDS011;1821;50.936;6.854;2023-07-09T01:17:21;10.43;;;6.50;;
3613;SDS011;1821;50.936;6.854;2023-07-09T01:18:04;12.27;;;6.30;;
3613;SDS011;1821;50.936;6.854;2023-07-09T01:18:46;8.43;;;5.60;;
3613;SDS011;1821;50.936;6.854;2023-07-09T01:19:29;7.25;;;5.72;;
3613;SDS011;1821;50.936;6.854;2023-07-09T01:20:16;8.25;;;6.40;;
3613;SDS011;1821;50.936;6.854;2023-07-09T01:21:03;9.45;;;6.00;;
3613;SDS011;1821;50.936;6.854;2023-07-09T01:21:49;8.95;;;6.20;;
3613;SDS011;1821;50.936;6.854;2023-07-09T01:22:32;7.00;;;5.60;;
3613;SDS011;1821;50.936;6.854;2023-07-09T01:23:14;7.43;;;5.90;;
3613;SDS011;1821;50.936;6.854;2023-07-09T01:23:58;9.43;;;6.13;;
3613;SDS011;1821;50.936;6.854;2023-07-09T01:25:36;10.90;;;6.03;;
3613;SDS011;1821;50.936;6.854;2023-07-09T01:26:20;9.20;;;6.57;;
3613;SDS011;1821;50.936;6.854;2023-07-09T01:27:03;8.68;;;6.65;;
3613;SDS011;1821;50.936;6.854;2023-07-09T01:27:48;9.73;;;6.25;;
3613;SDS011;1821;50.936;6.854;2023-07-09T01:28:30;9.98;;;6.10;;
3613;SDS011;1821;50.936;6.854;2023-07-09T01:29:13;9.15;;;5.25;;
3613;SDS011;1821;50.936;6.854;2023-07-09T01:29:55;7.75;;;5.60;;
3613;SDS011;1821;50.936;6.854;2023-07-09T01:30:39;7.55;;;5.78;;
3613;SDS011;1821;50.936;6.854;2023-07-09T01:31:22;10.00;;;6.17;;
3613;SDS011;1821;50.936;6.854;2023-07-09T01:32:05;9.60;;;6.53;;
3613;SDS011;1821;50.936;6.854;2023-07-09T01:32:48;9.88;;;5.80;;
3613;SDS011;1821;50.936;6.854;2023-07-09T01:33:31;9.15;;;6.40;;
3613;SDS011;1821;50.936;6.854;2023-07-09T01:34:13;8.95;;;6.43;;
3613;SDS011;1821;50.936;6.854;2023-07-09T01:34:59;9.48;;;5.97;;
3613;SDS011;1821;50.936;6.854;2023-07-09T01:35:46;8.57;;;5.80;;
3613;SDS011;1821;50.936;6.854;2023-07-09T01:36:29;9.90;;;6.50;;
3613;SDS011;1821;50.936;6.854;2023-07-09T01:37:19;8.07;;;6.05;;
3613;SDS011;1821;50.936;6.854;2023-07-09T01:38:03;8.40;;;6.07;;
3613;SDS011;1821;50.936;6.854;2023-07-09T01:38:53;11.30;;;6.60;;
3613;SDS011;1821;50.936;6.854;2023-07-09T01:39:35;9.98;;;6.00;;
3613;SDS011;1821;50.936;6.854;2023-07-09T01:40:21;8.95;;;6.80;;
3613;SDS011;1821;50.936;6.854;2023-07-09T01:41:12;10.23;;;6.60;;
3613;SDS011;1821;50.936;6.854;2023-07-09T01:41:55;10.38;;;5.90;;
3613;SDS011;1821;50.936;6.854;2023-07-09T01:42:38;7.88;;;5.70;;
3613;SDS011;1821;50.936;6.854;2023-07-09T01:43:20;8.18;;;6.53;;
3613;SDS011;1821;50.936;6.854;2023-07-09T01:44:03;10.07;;;6.72;;
3613;SDS011;1821;50.936;6.854;2023-07-09T01:44:46;11.30;;;6.40;;
3613;SDS011;1821;50.936;6.854;2023-07-09T01:45:28;11.75;;;5.75;;
3613;SDS011;1821;50.936;6.854;2023-07-09T01:46:11;9.65;;;5.82;;
3613;SDS011;1821;50.936;6.854;2023-07-09T01:46:53;9.95;;;6.70;;
3613;SDS011;1821;50.936;6.854;2023-07-09T01:47:36;11.18;;;6.35;;
3613;SDS011;1821;50.936;6.854;2023-07-09T01:48:19;10.20;;;6.68;;
3613;SDS011;1821;50.936;6.854;2023-07-09T01:49:01;8.82;;;6.40;;
3613;SDS011;1821;50.936;6.854;2023-07-09T01:49:43;8.53;;;6.33;;
3613;SDS011;1821;50.936;6.854;2023-07-09T01:50:27;8.95;;;6.70;;
3613;SDS011;1821;50.936;6.854;2023-07-09T01:51:11;9.10;;;6.13;;
3613;SDS011;1821;50.936;6.854;2023-07-09T01:51:54;10.43;;;6.22;;
3613;SDS011;1821;50.936;6.854;2023-07-09T01:52:37;9.77;;;6.10;;
3613;SDS011;1821;50.936;6.854;2023-07-09T01:53:21;7.47;;;5.50;;
3613;SDS011;1821;50.936;6.854;2023-07-09T01:54:07;7.72;;;6.40;;
3613;SDS011;1821;50.936;6.854;2023-07-09T01:54:49;9.45;;;6.47;;
3613;SDS011;1821;50.936;6.854;2023-07-09T01:55:31;8.40;;;6.60;;
3613;SDS011;1821;50.936;6.854;2023-07-09T01:56:15;10.05;;;6.57;;
3613;SDS011;1821;50.936;6.854;2023-07-09T01:57:12;10.45;;;6.35;;
3613;SDS011;1821;50.936;6.854;2023-07-09T01:57:54;9.60;;;6.30;;
3613;SDS011;1821;50.936;6.854;2023-07-09T01:58:37;8.38;;;6.50;;
3613;SDS011;1821;50.936;6.854;2023-07-09T01:59:23;7.80;;;6.25;;
3613;SDS011;1821;50.936;6.854;2023-07-09T02:00:10;8.63;;;6.28;;
3613;SDS011;1821;50.936;6.854;2023-07-09T02:00:57;7.85;;;5.90;;
3613;SDS011;1821;50.936;6.854;2023-07-09T02:01:40;9.30;;;7.10;;
3613;SDS011;1821;50.936;6.854;2023-07-09T02:02:22;8.73;;;6.55;;
3613;SDS011;1821;50.936;6.854;2023-07-09T02:03:06;8.45;;;5.95;;
3613;SDS011;1821;50.936;6.854;2023-07-09T02:03:51;7.35;;;6.35;;
3613;SDS011;1821;50.936;6.854;2023-07-09T02:04:35;8.43;;;6.82;;
3613;SDS011;1821;50.936;6.854;2023-07-09T02:05:18;9.57;;;5.87;;
3613;SDS011;1821;50.936;6.854;2023-07-09T02:06:01;8.70;;;6.20;;
3613;SDS011;1821;50.936;6.854;2023-07-09T02:06:50;7.85;;;6.13;;
3613;SDS011;1821;50.936;6.854;2023-07-09T02:07:35;8.23;;;6.07;;
3613;SDS011;1821;50.936;6.854;2023-07-09T02:08:17;10.43;;;6.43;;
3613;SDS011;1821;50.936;6.854;2023-07-09T02:09:00;11.38;;;6.50;;
3613;SDS011;1821;50.936;6.854;2023-07-09T02:09:42;8.82;;;6.10;;
3613;SDS011;1821;50.936;6.854;2023-07-09T02:10:25;11.27;;;6.20;;
3613;SDS011;1821;50.936;6.854;2023-07-09T02:11:07;10.10;;;6.57;;
3613;SDS011;1821;50.936;6.854;2023-07-09T02:11:50;9.85;;;6.50;;
3613;SDS011;1821;50.936;6.854;2023-07-09T02:12:32;9.30;;;6.63;;
3613;SDS011;1821;50.936;6.854;2023-07-09T02:13:14;9.70;;;6.80;;
3613;SDS011;1821;50.936;6.854;2023-07-09T02:13:56;10.88;;;6.30;;
3613;SDS011;1821;50.936;6.854;2023-07-09T02:14:39;10.82;;;6.78;;
3613;SDS011;1821;50.936;6.854;2023-07-09T02:15:21;10.88;;;6.55;;
3613;SDS011;1821;50.936;6.854;2023-07-09T02:16:04;10.25;;;6.90;;
3613;SDS011;1821;50.936;6.854;2023-07-09T02:16:46;9.02;;;6.50;;
3613;SDS011;1821;50.936;6.854;2023-07-09T02:17:29;9.70;;;6.55;;
3613;SDS011;1821;50.936;6.854;2023-07-09T02:18:11;8.90;;;6.18;;
3613;SDS011;1821;50.936;6.854;2023-07-09T02:18:54;8.55;;;6.32;;
3613;SDS011;1821;50.936;6.854;2023-07-09T02:19:36;8.53;;;5.90;;
3613;SDS011;1821;50.936;6.854;2023-07-09T02:20:19;10.82;;;6.72;;
3613;SDS011;1821;50.936;6.854;2023-07-09T02:21:01;10.00;;;7.10;;
3613;SDS011;1821;50.936;6.854;2023-07-09T02:21:46;11.57;;;7.43;;
3613;SDS011;1821;50.936;6.854;2023-07-09T02:22:28;11.07;;;7.47;;
3613;SDS011;1821;50.936;6.854;2023-07-09T02:23:10;10.10;;;7.47;;
3613;SDS011;1821;50.936;6.854;2023-07-09T02:23:55;10.55;;;7.00;;
3613;SDS011;1821;50.936;6.854;2023-07-09T02:24:37;8.25;;;6.25;;
3613;SDS011;1821;50.936;6.854;2023-07-09T02:25:20;8.88;;;6.60;;
3613;SDS011;1821;50.936;6.854;2023-07-09T02:26:02;11.93;;;6.95;;
3613;SDS011;1821;50.936;6.854;2023-07-09T02:26:45;9.88;;;7.30;;
3613;SDS011;1821;50.936;6.854;2023-07-09T02:27:28;8.52;;;6.63;;
3613;SDS011;1821;50.936;6.854;2023-07-09T02:28:10;9.27;;;6.60;;
3613;SDS011;1821;50.936;6.854;2023-07-09T02:28:52;9.45;;;6.70;;
3613;SDS011;1821;50.936;6.854;2023-07-09T02:29:35;8.93;;;7.03;;
3613;SDS011;1821;50.936;6.854;2023-07-09T02:30:17;9.95;;;6.70;;
3613;SDS011;1821;50.936;6.854;2023-07-09T02:30:59;12.07;;;7.20;;
3613;SDS011;1821;50.936;6.854;2023-07-09T02:31:42;10.60;;;7.15;;
3613;SDS011;1821;50.936;6.854;2023-07-09T02:32:25;9.82;;;6.65;;
3613;SDS011;1821;50.936;6.854;2023-07-09T02:33:08;10.05;;;6.70;;
3613;SDS011;1821;50.936;6.854;2023-07-09T02:33:50;11.20;;;6.90;;
3613;SDS011;1821;50.936;6.854;2023-07-09T02:34:35;9.75;;;6.57;;
3613;SDS011;1821;50.936;6.854;2023-07-09T02:35:17;6.72;;;5.90;;
3613;SDS011;1821;50.936;6.854;2023-07-09T02:35:59;7.30;;;6.18;;
3613;SDS011;1821;50.936;6.854;2023-07-09T02:36:42;8.93;;;6.70;;
3613;SDS011;1821;50.936;6.854;2023-07-09T02:37:25;9.25;;;6.57;;
3613;SDS011;1821;50.936;6.854;2023-07-09T02:38:07;7.70;;;6.90;;
3613;SDS011;1821;50.936;6.854;2023-07-09T02:38:49;9.77;;;7.40;;
3613;SDS011;1821;50.936;6.854;2023-07-09T02:39:32;9.60;;;7.30;;
3613;SDS011;1821;50.936;6.854;2023-07-09T02:40:14;8.60;;;7.28;;
3613;SDS011;1821;50.936;6.854;2023-07-09T02:40:57;9.10;;;6.40;;
3613;SDS011;1821;50.936;6.854;2023-07-09T02:41:39;9.55;;;6.20;;
3613;SDS011;1821;50.936;6.854;2023-07-09T02:42:22;8.50;;;6.32;;
3613;SDS011;1821;50.936;6.854;2023-07-09T02:43:05;12.07;;;7.00;;
3613;SDS011;1821;50.936;6.854;2023-07-09T02:43:47;11.10;;;6.90;;
3613;SDS011;1821;50.936;6.854;2023-07-09T02:44:29;9.52;;;6.90;;
3613;SDS011;1821;50.936;6.854;2023-07-09T02:45:12;9.48;;;6.63;;
3613;SDS011;1821;50.936;6.854;2023-07-09T02:45:54;10.98;;;7.95;;
3613;SDS011;1821;50.936;6.854;2023-07-09T02:46:36;8.98;;;6.80;;
3613;SDS011;1821;50.936;6.854;2023-07-09T02:47:18;8.65;;;6.40;;
3613;SDS011;1821;50.936;6.854;2023-07-09T02:48:01;8.90;;;6.60;;
3613;SDS011;1821;50.936;6.854;2023-07-09T02:48:43;9.75;;;6.88;;
3613;SDS011;1821;50.936;6.854;2023-07-09T02:49:26;8.32;;;6.70;;
3613;SDS011;1821;50.936;6.854;2023-07-09T02:50:08;8.70;;;6.80;;
3613;SDS011;1821;50.936;6.854;2023-07-09T02:50:50;8.93;;;6.57;;
3613;SDS011;1821;50.936;6.854;2023-07-09T02:51:33;8.60;;;6.53;;
3613;SDS011;1821;50.936;6.854;2023-07-09T02:52:15;9.02;;;6.07;;
3613;SDS011;1821;50.936;6.854;2023-07-09T02:52:57;10.27;;;7.10;;
3613;SDS011;1821;50.936;6.854;2023-07-09T02:53:40;10.63;;;6.80;;
3613;SDS011;1821;50.936;6.854;2023-07-09T02:54:22;9.00;;;6.85;;
3613;SDS011;1821;50.936;6.854;2023-07-09T02:55:04;10.95;;;6.65;;
3613;SDS011;1821;50.936;6.854;2023-07-09T02:55:47;9.38;;;6.05;;
3613;SDS011;1821;50.936;6.854;2023-07-09T02:56:29;9.65;;;6.85;;
3613;SDS011;1821;50.936;6.854;2023-07-09T02:57:11;10.63;;;7.57;;
3613;SDS011;1821;50.936;6.854;2023-07-09T02:57:54;10.20;;;6.70;;
3613;SDS011;1821;50.936;6.854;2023-07-09T02:58:36;8.67;;;6.67;;
3613;SDS011;1821;50.936;6.854;2023-07-09T02:59:21;10.38;;;7.38;;
3613;SDS011;1821;50.936;6.854;2023-07-09T03:00:04;10.50;;;6.53;;
3613;SDS011;1821;50.936;6.854;2023-07-09T03:00:49;13.27;;;7.35;;
3613;SDS011;1821;50.936;6.854;2023-07-09T03:01:35;9.73;;;6.90;;
3613;SDS011;1821;50.936;6.854;2023-07-09T03:02:17;12.23;;;6.80;;
3613;SDS011;1821;50.936;6.854;2023-07-09T03:02:59;12.73;;;7.00;;
3613;SDS011;1821;50.936;6.854;2023-07-09T03:03:42;10.65;;;7.15;;
3613;SDS011;1821;50.936;6.854;2023-07-09T03:04:27;9.98;;;7.10;;
3613;SDS011;1821;50.936;6.854;2023-07-09T03:05:09;10.13;;;6.95;;
3613;SDS011;1821;50.936;6.854;2023-07-09T03:05:52;11.20;;;7.07;;
3613;SDS011;1821;50.936;6.854;2023-07-09T03:06:34;10.27;;;6.85;;
3613;SDS011;1821;50.936;6.854;2023-07-09T03:07:16;9.80;;;6.70;;
3613;SDS011;1821;50.936;6.854;2023-07-09T03:07:58;9.35;;;7.00;;
3613;SDS011;1821;50.936;6.854;2023-07-09T03:08:41;12.00;;;6.88;;
3613;SDS011;1821;50.936;6.854;2023-07-09T03:09:23;10.20;;;6.10;;
3613;SDS011;1821;50.936;6.854;2023-07-09T03:10:05;8.70;;;6.90;;
3613;SDS011;1821;50.936;6.854;2023-07-09T03:10:50;8.90;;;6.50;;
3613;SDS011;1821;50.936;6.854;2023-07-09T03:11:33;8.02;;;6.47;;
3613;SDS011;1821;50.936;6.854;2023-07-09T03:12:15;9.15;;;6.53;;
3613;SDS011;1821;50.936;6.854;2023-07-09T03:12:58;8.27;;;6.57;;
3613;SDS011;1821;50.936;6.854;2023-07-09T03:13:40;11.20;;;6.55;;
3613;SDS011;1821;50.936;6.854;2023-07-09T03:14:23;11.60;;;6.60;;
3613;SDS011;1821;50.936;6.854;2023-07-09T03:15:05;11.13;;;7.00;;
3613;SDS011;1821;50.936;6.854;2023-07-09T03:15:53;9.77;;;7.00;;
3613;SDS011;1821;50.936;6.854;2023-07-09T03:16:36;10.18;;;7.00;;
3613;SDS011;1821;50.936;6.854;2023-07-09T03:17:19;9.65;;;6.90;;
3613;SDS011;1821;50.936;6.854;2023-07-09T03:18:01;10.25;;;7.32;;
3613;SDS011;1821;50.936;6.854;2023-07-09T03:18:44;9.55;;;6.10;;
3613;SDS011;1821;50.936;6.854;2023-07-09T03:19:26;9.40;;;6.82;;
3613;SDS011;1821;50.936;6.854;2023-07-09T03:20:09;10.15;;;7.30;;
3613;SDS011;1821;50.936;6.854;2023-07-09T03:20:51;10.38;;;7.15;;
3613;SDS011;1821;50.936;6.854;2023-07-09T03:21:34;10.93;;;7.80;;
3613;SDS011;1821;50.936;6.854;2023-07-09T03:22:16;12.32;;;7.43;;
3613;SDS011;1821;50.936;6.854;2023-07-09T03:23:00;12.88;;;6.95;;
3613;SDS011;1821;50.936;6.854;2023-07-09T03:23:42;10.38;;;7.20;;
3613;SDS011;1821;50.936;6.854;2023-07-09T03:24:25;12.43;;;7.47;;
3613;SDS011;1821;50.936;6.854;2023-07-09T03:25:07;11.82;;;7.20;;
3613;SDS011;1821;50.936;6.854;2023-07-09T03:25:49;10.43;;;6.93;;
3613;SDS011;1821;50.936;6.854;2023-07-09T03:26:32;10.20;;;6.90;;
3613;SDS011;1821;50.936;6.854;2023-07-09T03:27:14;8.38;;;6.40;;
3613;SDS011;1821;50.936;6.854;2023-07-09T03:27:56;8.90;;;6.78;;
3613;SDS011;1821;50.936;6.854;2023-07-09T03:28:39;9.07;;;6.63;;
3613;SDS011;1821;50.936;6.854;2023-07-09T03:29:21;9.70;;;6.85;;
3613;SDS011;1821;50.936;6.854;2023-07-09T03:30:03;11.68;;;6.72;;
3613;SDS011;1821;50.936;6.854;2023-07-09T03:30:47;12.52;;;6.57;;
3613;SDS011;1821;50.936;6.854;2023-07-09T03:31:29;12.55;;;6.80;;
3613;SDS011;1821;50.936;6.854;2023-07-09T03:32:16;11.35;;;6.68;;
3613;SDS011;1821;50.936;6.854;2023-07-09T03:32:59;10.13;;;7.00;;
3613;SDS011;1821;50.936;6.854;2023-07-09T03:33:41;11.27;;;7.10;;
3613;SDS011;1821;50.936;6.854;2023-07-09T03:34:23;8.27;;;6.88;;
3613;SDS011;1821;50.936;6.854;2023-07-09T03:35:06;8.70;;;6.20;;
3613;SDS011;1821;50.936;6.854;2023-07-09T03:35:50;11.27;;;6.43;;
3613;SDS011;1821;50.936;6.854;2023-07-09T03:36:32;10.85;;;6.43;;
3613;SDS011;1821;50.936;6.854;2023-07-09T03:37:14;11.27;;;7.00;;
3613;SDS011;1821;50.936;6.854;2023-07-09T03:37:57;9.93;;;7.23;;
3613;SDS011;1821;50.936;6.854;2023-07-09T03:38:39;9.75;;;6.35;;
3613;SDS011;1821;50.936;6.854;2023-07-09T03:39:21;11.73;;;6.97;;
3613;SDS011;1821;50.936;6.854;2023-07-09T03:40:03;11.85;;;7.25;;
3613;SDS011;1821;50.936;6.854;2023-07-09T03:40:49;10.70;;;7.05;;
3613;SDS011;1821;50.936;6.854;2023-07-09T03:41:32;9.63;;;6.97;;
3613;SDS011;1821;50.936;6.854;2023-07-09T03:42:15;11.40;;;7.60;;
3613;SDS011;1821;50.936;6.854;2023-07-09T03:43:00;11.63;;;6.95;;
3613;SDS011;1821;50.936;6.854;2023-07-09T03:43:43;11.48;;;6.80;;
3613;SDS011;1821;50.936;6.854;2023-07-09T03:44:25;9.38;;;7.10;;
3613;SDS011;1821;50.936;6.854;2023-07-09T03:45:10;9.27;;;6.10;;
3613;SDS011;1821;50.936;6.854;2023-07-09T03:45:52;9.20;;;6.50;;
3613;SDS011;1821;50.936;6.854;2023-07-09T03:46:35;9.18;;;7.25;;
3613;SDS011;1821;50.936;6.854;2023-07-09T03:47:17;8.85;;;6.47;;
3613;SDS011;1821;50.936;6.854;2023-07-09T03:48:00;10.95;;;6.55;;
3613;SDS011;1821;50.936;6.854;2023-07-09T03:48:42;11.82;;;7.25;;
3613;SDS011;1821;50.936;6.854;2023-07-09T03:49:25;11.32;;;7.82;;
3613;SDS011;1821;50.936;6.854;2023-07-09T03:50:08;9.63;;;6.80;;
3613;SDS011;1821;50.936;6.854;2023-07-09T03:50:50;10.20;;;7.30;;
3613;SDS011;1821;50.936;6.854;2023-07-09T03:51:33;9.32;;;7.25;;
3613;SDS011;1821;50.936;6.854;2023-07-09T03:52:15;11.27;;;7.90;;
3613;SDS011;1821;50.936;6.854;2023-07-09T03:53:00;12.30;;;7.18;;
3613;SDS011;1821;50.936;6.854;2023-07-09T03:53:43;11.20;;;6.50;;
3613;SDS011;1821;50.936;6.854;2023-07-09T03:54:25;9.30;;;6.50;;
3613;SDS011;1821;50.936;6.854;2023-07-09T03:55:08;14.05;;;6.68;;
3613;SDS011;1821;50.936;6.854;2023-07-09T03:55:54;11.85;;;6.45;;
3613;SDS011;1821;50.936;6.854;2023-07-09T03:56:36;11.32;;;6.80;;
3613;SDS011;1821;50.936;6.854;2023-07-09T03:57:19;9.60;;;6.72;;
3613;SDS011;1821;50.936;6.854;2023-07-09T03:58:01;10.80;;;6.70;;
3613;SDS011;1821;50.936;6.854;2023-07-09T03:58:44;13.50;;;7.05;;
3613;SDS011;1821;50.936;6.854;2023-07-09T03:59:27;13.23;;;7.03;;
3613;SDS011;1821;50.936;6.854;2023-07-09T04:00:09;11.18;;;6.50;;
3613;SDS011;1821;50.936;6.854;2023-07-09T04:00:52;11.93;;;6.95;;
3613;SDS011;1821;50.936;6.854;2023-07-09T04:01:36;10.80;;;6.80;;
3613;SDS011;1821;50.936;6.854;2023-07-09T04:02:20;9.90;;;6.70;;
3613;SDS011;1821;50.936;6.854;2023-07-09T04:03:05;10.13;;;7.18;;
3613;SDS011;1821;50.936;6.854;2023-07-09T04:03:49;10.40;;;7.57;;
3613;SDS011;1821;50.936;6.854;2023-07-09T04:04:32;10.30;;;7.30;;
3613;SDS011;1821;50.936;6.854;2023-07-09T04:05:14;11.43;;;7.00;;
3613;SDS011;1821;50.936;6.854;2023-07-09T04:05:56;9.48;;;6.70;;
3613;SDS011;1821;50.936;6.854;2023-07-09T04:06:39;11.63;;;6.15;;
3613;SDS011;1821;50.936;6.854;2023-07-09T04:07:21;9.93;;;6.50;;
3613;SDS011;1821;50.936;6.854;2023-07-09T04:08:04;11.65;;;6.90;;
3613;SDS011;1821;50.936;6.854;2023-07-09T04:08:47;10.02;;;6.53;;
3613;SDS011;1821;50.936;6.854;2023-07-09T04:09:31;11.43;;;7.20;;
3613;SDS011;1821;50.936;6.854;2023-07-09T04:10:16;10.07;;;6.15;;
3613;SDS011;1821;50.936;6.854;2023-07-09T04:10:59;8.52;;;6.40;;
3613;SDS011;1821;50.936;6.854;2023-07-09T04:11:42;11.40;;;6.60;;
3613;SDS011;1821;50.936;6.854;2023-07-09T04:12:24;11.10;;;6.70;;
3613;SDS011;1821;50.936;6.854;2023-07-09T04:13:06;11.40;;;6.25;;
3613;SDS011;1821;50.936;6.854;2023-07-09T04:13:48;10.63;;;6.80;;
3613;SDS011;1821;50.936;6.854;2023-07-09T04:14:31;9.27;;;6.20;;
3613;SDS011;1821;50.936;6.854;2023-07-09T04:15:15;10.55;;;6.40;;
3613;SDS011;1821;50.936;6.854;2023-07-09T04:15:57;11.35;;;6.18;;
3613;SDS011;1821;50.936;6.854;2023-07-09T04:16:40;9.65;;;6.30;;
3613;SDS011;1821;50.936;6.854;2023-07-09T04:17:23;12.15;;;6.50;;
3613;SDS011;1821;50.936;6.854;2023-07-09T04:18:05;11.55;;;6.43;;
3613;SDS011;1821;50.936;6.854;2023-07-09T04:18:48;9.93;;;6.78;;
3613;SDS011;1821;50.936;6.854;2023-07-09T04:19:33;10.25;;;7.22;;
3613;SDS011;1821;50.936;6.854;2023-07-09T04:20:15;10.27;;;6.63;;
3613;SDS011;1821;50.936;6.854;2023-07-09T04:20:57;8.60;;;6.30;;
3613;SDS011;1821;50.936;6.854;2023-07-09T04:21:40;10.52;;;6.60;;
3613;SDS011;1821;50.936;6.854;2023-07-09T04:22:22;10.88;;;6.68;;
3613;SDS011;1821;50.936;6.854;2023-07-09T04:23:05;8.48;;;6.68;;
3613;SDS011;1821;50.936;6.854;2023-07-09T04:23:48;8.77;;;6.72;;
3613;SDS011;1821;50.936;6.854;2023-07-09T04:24:31;10.20;;;6.32;;
3613;SDS011;1821;50.936;6.854;2023-07-09T04:25:16;8.82;;;6.40;;
3613;SDS011;1821;50.936;6.854;2023-07-09T04:25:59;8.77;;;6.15;;
3613;SDS011;1821;50.936;6.854;2023-07-09T04:26:45;9.10;;;6.38;;
3613;SDS011;1821;50.936;6.854;2023-07-09T04:27:27;9.02;;;6.30;;
3613;SDS011;1821;50.936;6.854;2023-07-09T04:28:09;8.50;;;5.90;;
3613;SDS011;1821;50.936;6.854;2023-07-09T04:28:52;10.07;;;6.60;;
3613;SDS011;1821;50.936;6.854;2023-07-09T04:29:34;10.35;;;6.45;;
3613;SDS011;1821;50.936;6.854;2023-07-09T04:30:17;9.35;;;5.90;;
3613;SDS011;1821;50.936;6.854;2023-07-09T04:30:59;10.90;;;6.60;;
3613;SDS011;1821;50.936;6.854;2023-07-09T04:31:42;12.77;;;7.03;;
3613;SDS011;1821;50.936;6.854;2023-07-09T04:32:24;11.98;;;6.18;;